sensor_id;sensor_type;location;lat;lon;timestamp;P1;P2;P0
49343;PMS5003;35210;41.606;-87.602;2023-05-07T00:00:02;11.20;11.20;9.00
49343;PMS5003;35210;41.606;-87.602;2023-05-07T00:02:33;12.40;11.20;8.40
49343;PMS5003;35210;41.606;-87.602;2023-05-07T00:05:01;12.80;10.40;7.60
49343;PMS5003;35210;41.606;-87.602;2023-05-07T00:07:29;10.20;8.20;6.20
49343;PMS5003;35210;41.606;-87.602;2023-05-07T00:09:58;12.80;11.80;8.60
49343;PMS5003;35210;41.606;-87.602;2023-05-07T00:12:26;12.00;11.40;9.00
49343;PMS5003;35210;41.606;-87.602;2023-05-07T00:14:57;11.00;10.00;7.20
49343;PMS5003;35210;41.606;-87.602;2023-05-07T00:17:26;12.40;11.00;9.00
49343;PMS5003;35210;41.606;-87.602;2023-05-07T00:19:54;12.00;11.80;9.00
49343;PMS5003;35210;41.606;-87.602;2023-05-07T00:22:22;10.40;10.20;8.00
49343;PMS5003;35210;41.606;-87.602;2023-05-07T00:24:51;8.80;8.60;5.20
49343;PMS5003;35210;41.606;-87.602;2023-05-07T00:27:19;11.80;11.80;9.00
49343;PMS5003;35210;41.606;-87.602;2023-05-07T00:29:47;12.60;12.60;8.40
49343;PMS5003;35210;41.606;-87.602;2023-05-07T00:32:15;12.60;11.00;8.00
49343;PMS5003;35210;41.606;-87.602;2023-05-07T00:34:45;8.80;8.80;6.00
49343;PMS5003;35210;41.606;-87.602;2023-05-07T00:37:13;12.00;10.20;7.40
49343;PMS5003;35210;41.606;-87.602;2023-05-07T00:39:41;10.80;8.80;7.00
49343;PMS5003;35210;41.606;-87.602;2023-05-07T00:42:10;9.80;9.80;8.80
49343;PMS5003;35210;41.606;-87.602;2023-05-07T00:44:38;9.60;8.80;7.20
49343;PMS5003;35210;41.606;-87.602;2023-05-07T00:47:06;11.00;11.00;8.00
49343;PMS5003;35210;41.606;-87.602;2023-05-07T00:49:35;11.80;11.40;9.20
49343;PMS5003;35210;41.606;-87.602;2023-05-07T00:52:08;11.40;11.40;10.20
49343;PMS5003;35210;41.606;-87.602;2023-05-07T00:54:38;10.80;8.80;7.00
49343;PMS5003;35210;41.606;-87.602;2023-05-07T00:57:08;10.20;10.20;7.20
49343;PMS5003;35210;41.606;-87.602;2023-05-07T00:59:38;14.80;14.80;10.20
49343;PMS5003;35210;41.606;-87.602;2023-05-07T01:02:06;13.20;12.60;10.60
49343;PMS5003;35210;41.606;-87.602;2023-05-07T01:04:34;8.80;8.80;7.40
49343;PMS5003;35210;41.606;-87.602;2023-05-07T01:07:02;13.00;11.60;9.80
49343;PMS5003;35210;41.606;-87.602;2023-05-07T01:09:33;14.80;14.80;11.00
49343;PMS5003;35210;41.606;-87.602;2023-05-07T01:12:03;11.80;11.80;9.40
49343;PMS5003;35210;41.606;-87.602;2023-05-07T01:14:32;13.00;12.20;8.80
49343;PMS5003;35210;41.606;-87.602;2023-05-07T01:17:01;14.40;14.40;10.00
49343;PMS5003;35210;41.606;-87.602;2023-05-07T01:19:32;11.80;11.40;10.00
49343;PMS5003;35210;41.606;-87.602;2023-05-07T01:22:02;14.80;12.80;9.20
49343;PMS5003;35210;41.606;-87.602;2023-05-07T01:24:37;15.00;13.80;10.00
49343;PMS5003;35210;41.606;-87.602;2023-05-07T01:27:06;11.60;11.60;10.40
49343;PMS5003;35210;41.606;-87.602;2023-05-07T01:29:34;13.20;13.20;10.60
49343;PMS5003;35210;41.606;-87.602;2023-05-07T01:32:02;13.40;12.60;9.00
49343;PMS5003;35210;41.606;-87.602;2023-05-07T01:34:31;15.00;13.80;11.40
49343;PMS5003;35210;41.606;-87.602;2023-05-07T01:37:03;12.60;11.20;8.40
49343;PMS5003;35210;41.606;-87.602;2023-05-07T01:39:31;14.80;13.80;10.60
49343;PMS5003;35210;41.606;-87.602;2023-05-07T01:42:02;13.80;13.00;10.60
49343;PMS5003;35210;41.606;-87.602;2023-05-07T01:44:30;13.60;13.60;9.80
49343;PMS5003;35210;41.606;-87.602;2023-05-07T01:46:59;13.20;13.20;8.20
49343;PMS5003;35210;41.606;-87.602;2023-05-07T01:49:28;13.80;13.80;11.00
49343;PMS5003;35210;41.606;-87.602;2023-05-07T01:51:57;14.80;14.00;10.00
49343;PMS5003;35210;41.606;-87.602;2023-05-07T01:54:25;12.60;12.20;10.20
49343;PMS5003;35210;41.606;-87.602;2023-05-07T01:56:55;12.20;12.00;9.20
49343;PMS5003;35210;41.606;-87.602;2023-05-07T01:59:26;15.60;12.60;10.00
49343;PMS5003;35210;41.606;-87.602;2023-05-07T02:01:54;16.00;13.20;10.20
49343;PMS5003;35210;41.606;-87.602;2023-05-07T02:04:22;15.20;14.00;9.00
49343;PMS5003;35210;41.606;-87.602;2023-05-07T02:06:50;10.00;10.00;9.40
49343;PMS5003;35210;41.606;-87.602;2023-05-07T02:09:18;14.00;13.20;10.40
49343;PMS5003;35210;41.606;-87.602;2023-05-07T02:11:46;18.00;15.00;10.80
49343;PMS5003;35210;41.606;-87.602;2023-05-07T02:14:14;14.40;14.40;9.80
49343;PMS5003;35210;41.606;-87.602;2023-05-07T02:16:44;16.60;16.00;11.20
49343;PMS5003;35210;41.606;-87.602;2023-05-07T02:19:12;16.20;15.00;10.20
49343;PMS5003;35210;41.606;-87.602;2023-05-07T02:21:40;12.80;12.80;10.00
49343;PMS5003;35210;41.606;-87.602;2023-05-07T02:24:10;17.00;15.40;11.80
49343;PMS5003;35210;41.606;-87.602;2023-05-07T02:26:39;13.80;13.60;11.00
49343;PMS5003;35210;41.606;-87.602;2023-05-07T02:29:07;16.40;15.40;11.40
49343;PMS5003;35210;41.606;-87.602;2023-05-07T02:31:35;14.80;12.60;10.00
49343;PMS5003;35210;41.606;-87.602;2023-05-07T02:34:05;14.80;14.80;11.00
49343;PMS5003;35210;41.606;-87.602;2023-05-07T02:36:33;17.00;15.00;11.60
49343;PMS5003;35210;41.606;-87.602;2023-05-07T02:39:01;16.60;15.20;11.60
49343;PMS5003;35210;41.606;-87.602;2023-05-07T02:41:30;17.20;14.80;12.00
49343;PMS5003;35210;41.606;-87.602;2023-05-07T02:43:58;14.00;12.60;9.80
49343;PMS5003;35210;41.606;-87.602;2023-05-07T02:46:27;15.40;14.40;11.20
49343;PMS5003;35210;41.606;-87.602;2023-05-07T02:48:55;17.60;16.20;13.20
49343;PMS5003;35210;41.606;-87.602;2023-05-07T02:51:25;23.80;23.60;17.20
49343;PMS5003;35210;41.606;-87.602;2023-05-07T02:53:53;19.40;18.20;13.00
49343;PMS5003;35210;41.606;-87.602;2023-05-07T02:56:22;20.00;17.60;13.20
49343;PMS5003;35210;41.606;-87.602;2023-05-07T02:58:50;17.60;15.20;12.00
49343;PMS5003;35210;41.606;-87.602;2023-05-07T03:01:18;25.60;23.00;17.80
49343;PMS5003;35210;41.606;-87.602;2023-05-07T03:03:46;18.40;15.80;13.00
49343;PMS5003;35210;41.606;-87.602;2023-05-07T03:06:14;17.00;17.00;14.00
49343;PMS5003;35210;41.606;-87.602;2023-05-07T03:08:44;14.20;13.60;10.40
49343;PMS5003;35210;41.606;-87.602;2023-05-07T03:11:12;17.20;17.20;13.60
49343;PMS5003;35210;41.606;-87.602;2023-05-07T03:13:40;21.00;17.60;12.20
49343;PMS5003;35210;41.606;-87.602;2023-05-07T03:16:08;19.40;18.00;13.40
49343;PMS5003;35210;41.606;-87.602;2023-05-07T03:18:36;17.60;17.20;13.00
49343;PMS5003;35210;41.606;-87.602;2023-05-07T03:21:04;18.80;18.80;14.80
49343;PMS5003;35210;41.606;-87.602;2023-05-07T03:23:33;17.80;14.40;11.40
49343;PMS5003;35210;41.606;-87.602;2023-05-07T03:26:03;20.40;20.00;14.00
49343;PMS5003;35210;41.606;-87.602;2023-05-07T03:28:31;18.20;17.80;13.80
49343;PMS5003;35210;41.606;-87.602;2023-05-07T03:30:59;19.00;18.00;13.40
49343;PMS5003;35210;41.606;-87.602;2023-05-07T03:33:27;17.60;16.20;11.20
49343;PMS5003;35210;41.606;-87.602;2023-05-07T03:35:55;21.20;20.80;15.80
49343;PMS5003;35210;41.606;-87.602;2023-05-07T03:38:23;22.20;19.80;14.40
49343;PMS5003;35210;41.606;-87.602;2023-05-07T03:40:51;22.20;19.40;14.60
49343;PMS5003;35210;41.606;-87.602;2023-05-07T03:43:21;18.80;16.20;14.00
49343;PMS5003;35210;41.606;-87.602;2023-05-07T03:45:49;22.20;18.80;14.40
49343;PMS5003;35210;41.606;-87.602;2023-05-07T03:48:17;21.80;21.60;16.00
49343;PMS5003;35210;41.606;-87.602;2023-05-07T03:50:45;22.00;18.80;14.60
49343;PMS5003;35210;41.606;-87.602;2023-05-07T03:53:13;16.60;16.60;12.60
49343;PMS5003;35210;41.606;-87.602;2023-05-07T03:55:41;17.40;16.20;12.20
49343;PMS5003;35210;41.606;-87.602;2023-05-07T03:58:09;18.60;17.60;14.80
49343;PMS5003;35210;41.606;-87.602;2023-05-07T04:00:39;18.20;17.20;14.00
49343;PMS5003;35210;41.606;-87.602;2023-05-07T04:03:07;15.20;13.00;10.20
49343;PMS5003;35210;41.606;-87.602;2023-05-07T04:05:35;21.40;20.40;16.00
49343;PMS5003;35210;41.606;-87.602;2023-05-07T04:08:04;18.60;16.80;12.60
49343;PMS5003;35210;41.606;-87.602;2023-05-07T04:10:32;22.60;19.60;15.00
49343;PMS5003;35210;41.606;-87.602;2023-05-07T04:13:00;19.00;17.20;12.00
49343;PMS5003;35210;41.606;-87.602;2023-05-07T04:15:28;20.40;19.20;15.80
49343;PMS5003;35210;41.606;-87.602;2023-05-07T04:17:58;17.40;16.00;12.40
49343;PMS5003;35210;41.606;-87.602;2023-05-07T04:20:28;19.80;19.20;14.00
49343;PMS5003;35210;41.606;-87.602;2023-05-07T04:22:56;21.60;20.60;15.20
49343;PMS5003;35210;41.606;-87.602;2023-05-07T04:25:24;15.80;15.80;12.40
49343;PMS5003;35210;41.606;-87.602;2023-05-07T04:27:52;16.20;15.40;12.00
49343;PMS5003;35210;41.606;-87.602;2023-05-07T04:30:21;19.40;18.20;15.00
49343;PMS5003;35210;41.606;-87.602;2023-05-07T04:32:49;22.20;19.80;15.20
49343;PMS5003;35210;41.606;-87.602;2023-05-07T04:35:19;19.00;16.60;12.20
49343;PMS5003;35210;41.606;-87.602;2023-05-07T04:37:47;19.60;19.60;15.00
49343;PMS5003;35210;41.606;-87.602;2023-05-07T04:40:15;19.60;19.60;14.40
49343;PMS5003;35210;41.606;-87.602;2023-05-07T04:42:43;18.00;17.00;14.00
49343;PMS5003;35210;41.606;-87.602;2023-05-07T04:45:12;18.60;18.00;15.60
49343;PMS5003;35210;41.606;-87.602;2023-05-07T04:47:40;20.80;18.80;13.20
49343;PMS5003;35210;41.606;-87.602;2023-05-07T04:50:08;18.60;18.40;13.00
49343;PMS5003;35210;41.606;-87.602;2023-05-07T04:52:39;21.40;18.80;13.40
49343;PMS5003;35210;41.606;-87.602;2023-05-07T04:55:07;18.80;17.80;13.00
49343;PMS5003;35210;41.606;-87.602;2023-05-07T04:57:36;19.60;16.60;12.80
49343;PMS5003;35210;41.606;-87.602;2023-05-07T05:00:05;19.20;15.80;12.80
49343;PMS5003;35210;41.606;-87.602;2023-05-07T05:02:35;20.00;18.20;14.80
49343;PMS5003;35210;41.606;-87.602;2023-05-07T05:05:03;17.40;16.80;13.40
49343;PMS5003;35210;41.606;-87.602;2023-05-07T05:07:32;17.40;15.60;12.00
49343;PMS5003;35210;41.606;-87.602;2023-05-07T05:10:02;16.80;16.80;12.40
49343;PMS5003;35210;41.606;-87.602;2023-05-07T05:12:31;18.00;16.40;11.20
49343;PMS5003;35210;41.606;-87.602;2023-05-07T05:14:59;16.80;16.40;12.60
49343;PMS5003;35210;41.606;-87.602;2023-05-07T05:17:29;17.20;14.80;13.20
49343;PMS5003;35210;41.606;-87.602;2023-05-07T05:19:59;18.00;17.00;13.00
49343;PMS5003;35210;41.606;-87.602;2023-05-07T05:22:28;20.80;19.80;15.40
49343;PMS5003;35210;41.606;-87.602;2023-05-07T05:24:57;17.20;15.40;13.20
49343;PMS5003;35210;41.606;-87.602;2023-05-07T05:27:27;21.40;18.80;14.40
49343;PMS5003;35210;41.606;-87.602;2023-05-07T05:29:55;15.80;14.00;10.40
49343;PMS5003;35210;41.606;-87.602;2023-05-07T05:32:23;16.00;16.00;10.00
49343;PMS5003;35210;41.606;-87.602;2023-05-07T05:34:53;18.40;17.00;12.60
49343;PMS5003;35210;41.606;-87.602;2023-05-07T05:37:21;20.80;20.80;13.40
49343;PMS5003;35210;41.606;-87.602;2023-05-07T05:39:49;14.80;14.40;12.00
49343;PMS5003;35210;41.606;-87.602;2023-05-07T05:42:17;20.40;19.00;14.80
49343;PMS5003;35210;41.606;-87.602;2023-05-07T05:44:47;19.00;17.40;11.40
49343;PMS5003;35210;41.606;-87.602;2023-05-07T05:47:15;20.40;18.40;12.80
49343;PMS5003;35210;41.606;-87.602;2023-05-07T05:49:43;15.60;15.60;12.60
49343;PMS5003;35210;41.606;-87.602;2023-05-07T05:52:11;15.60;15.20;10.40
49343;PMS5003;35210;41.606;-87.602;2023-05-07T05:54:42;13.20;12.00;9.80
49343;PMS5003;35210;41.606;-87.602;2023-05-07T05:57:10;17.60;15.80;12.00
49343;PMS5003;35210;41.606;-87.602;2023-05-07T05:59:38;19.00;19.00;13.20
49343;PMS5003;35210;41.606;-87.602;2023-05-07T06:02:08;18.80;17.80;12.80
49343;PMS5003;35210;41.606;-87.602;2023-05-07T06:04:36;17.40;16.80;13.00
49343;PMS5003;35210;41.606;-87.602;2023-05-07T06:07:04;24.20;21.20;15.60
49343;PMS5003;35210;41.606;-87.602;2023-05-07T06:09:32;17.80;16.60;13.60
49343;PMS5003;35210;41.606;-87.602;2023-05-07T06:12:00;15.60;14.20;10.40
49343;PMS5003;35210;41.606;-87.602;2023-05-07T06:14:28;18.80;16.20;13.00
49343;PMS5003;35210;41.606;-87.602;2023-05-07T06:16:56;17.20;17.20;14.00
49343;PMS5003;35210;41.606;-87.602;2023-05-07T06:19:26;18.20;16.80;11.80
49343;PMS5003;35210;41.606;-87.602;2023-05-07T06:21:54;18.20;15.80;12.60
49343;PMS5003;35210;41.606;-87.602;2023-05-07T06:24:23;19.60;17.00;12.80
49343;PMS5003;35210;41.606;-87.602;2023-05-07T06:26:51;16.80;16.40;12.00
49343;PMS5003;35210;41.606;-87.602;2023-05-07T06:29:19;17.20;15.80;12.00
49343;PMS5003;35210;41.606;-87.602;2023-05-07T06:31:47;16.00;14.80;12.20
49343;PMS5003;35210;41.606;-87.602;2023-05-07T06:34:15;16.00;14.60;12.80
49343;PMS5003;35210;41.606;-87.602;2023-05-07T06:36:45;16.20;16.20;12.00
49343;PMS5003;35210;41.606;-87.602;2023-05-07T06:39:13;16.40;15.60;12.00
49343;PMS5003;35210;41.606;-87.602;2023-05-07T06:41:41;19.80;18.60;13.80
49343;PMS5003;35210;41.606;-87.602;2023-05-07T06:44:10;18.40;18.20;15.00
49343;PMS5003;35210;41.606;-87.602;2023-05-07T06:46:38;18.60;18.60;14.60
49343;PMS5003;35210;41.606;-87.602;2023-05-07T06:49:07;20.40;19.60;14.60
49343;PMS5003;35210;41.606;-87.602;2023-05-07T06:51:35;19.00;19.00;15.60
49343;PMS5003;35210;41.606;-87.602;2023-05-07T06:54:05;18.80;17.20;13.00
49343;PMS5003;35210;41.606;-87.602;2023-05-07T06:56:33;20.00;20.00;15.40
49343;PMS5003;35210;41.606;-87.602;2023-05-07T06:59:01;18.60;18.60;13.00
49343;PMS5003;35210;41.606;-87.602;2023-05-07T07:01:30;19.60;18.80;14.60
49343;PMS5003;35210;41.606;-87.602;2023-05-07T07:03:58;19.20;17.80;13.60
49343;PMS5003;35210;41.606;-87.602;2023-05-07T07:06:26;17.80;14.80;11.00
49343;PMS5003;35210;41.606;-87.602;2023-05-07T07:08:55;17.20;16.20;12.00
49343;PMS5003;35210;41.606;-87.602;2023-05-07T07:11:24;18.40;16.80;13.40
49343;PMS5003;35210;41.606;-87.602;2023-05-07T07:13:52;17.20;15.00;13.00
49343;PMS5003;35210;41.606;-87.602;2023-05-07T07:16:21;16.40;14.20;10.00
49343;PMS5003;35210;41.606;-87.602;2023-05-07T07:18:49;19.80;18.80;13.00
49343;PMS5003;35210;41.606;-87.602;2023-05-07T07:21:18;14.40;10.80;8.40
49343;PMS5003;35210;41.606;-87.602;2023-05-07T07:23:46;22.20;18.60;13.20
49343;PMS5003;35210;41.606;-87.602;2023-05-07T07:26:14;18.20;17.60;12.80
49343;PMS5003;35210;41.606;-87.602;2023-05-07T07:28:44;17.40;16.40;11.80
49343;PMS5003;35210;41.606;-87.602;2023-05-07T07:31:13;19.40;18.40;13.00
49343;PMS5003;35210;41.606;-87.602;2023-05-07T07:33:41;19.80;18.60;14.20
49343;PMS5003;35210;41.606;-87.602;2023-05-07T07:36:09;25.40;21.20;14.60
49343;PMS5003;35210;41.606;-87.602;2023-05-07T07:38:37;21.00;19.80;14.40
49343;PMS5003;35210;41.606;-87.602;2023-05-07T07:41:07;20.60;20.00;13.40
49343;PMS5003;35210;41.606;-87.602;2023-05-07T07:43:36;18.60;17.00;13.40
49343;PMS5003;35210;41.606;-87.602;2023-05-07T07:46:06;15.00;14.40;11.00
49343;PMS5003;35210;41.606;-87.602;2023-05-07T07:48:34;21.40;19.40;15.40
49343;PMS5003;35210;41.606;-87.602;2023-05-07T07:51:02;20.40;17.60;14.20
49343;PMS5003;35210;41.606;-87.602;2023-05-07T07:53:30;18.20;17.40;13.80
49343;PMS5003;35210;41.606;-87.602;2023-05-07T07:55:58;20.60;18.60;14.60
49343;PMS5003;35210;41.606;-87.602;2023-05-07T07:58:26;19.40;19.20;13.60
49343;PMS5003;35210;41.606;-87.602;2023-05-07T08:00:55;24.00;16.80;12.00
49343;PMS5003;35210;41.606;-87.602;2023-05-07T08:03:24;19.00;19.00;14.20
49343;PMS5003;35210;41.606;-87.602;2023-05-07T08:05:53;21.60;19.60;13.00
49343;PMS5003;35210;41.606;-87.602;2023-05-07T08:08:21;18.60;15.20;12.00
49343;PMS5003;35210;41.606;-87.602;2023-05-07T08:10:49;17.00;17.00;11.00
49343;PMS5003;35210;41.606;-87.602;2023-05-07T08:13:18;20.60;18.80;13.60
49343;PMS5003;35210;41.606;-87.602;2023-05-07T08:15:46;18.80;18.80;14.60
49343;PMS5003;35210;41.606;-87.602;2023-05-07T08:18:14;17.40;15.40;12.00
49343;PMS5003;35210;41.606;-87.602;2023-05-07T08:20:43;16.60;16.40;12.60
49343;PMS5003;35210;41.606;-87.602;2023-05-07T08:23:11;16.80;16.80;12.60
49343;PMS5003;35210;41.606;-87.602;2023-05-07T08:25:39;18.20;16.00;11.60
49343;PMS5003;35210;41.606;-87.602;2023-05-07T08:28:08;15.80;15.00;11.00
49343;PMS5003;35210;41.606;-87.602;2023-05-07T08:30:36;15.80;15.80;11.20
49343;PMS5003;35210;41.606;-87.602;2023-05-07T08:33:04;17.20;16.20;12.20
49343;PMS5003;35210;41.606;-87.602;2023-05-07T08:35:32;18.40;16.40;13.00
49343;PMS5003;35210;41.606;-87.602;2023-05-07T08:38:03;20.80;17.40;12.60
49343;PMS5003;35210;41.606;-87.602;2023-05-07T08:40:32;16.80;16.80;13.00
49343;PMS5003;35210;41.606;-87.602;2023-05-07T08:43:05;21.60;20.60;15.00
49343;PMS5003;35210;41.606;-87.602;2023-05-07T08:45:34;30.20;27.60;18.00
49343;PMS5003;35210;41.606;-87.602;2023-05-07T08:48:02;21.00;20.40;13.40
49343;PMS5003;35210;41.606;-87.602;2023-05-07T08:50:36;26.60;24.60;17.00
49343;PMS5003;35210;41.606;-87.602;2023-05-07T08:53:06;20.60;18.60;16.00
49343;PMS5003;35210;41.606;-87.602;2023-05-07T08:55:34;25.40;22.60;16.60
49343;PMS5003;35210;41.606;-87.602;2023-05-07T08:58:03;20.20;19.60;15.00
49343;PMS5003;35210;41.606;-87.602;2023-05-07T09:00:31;21.20;20.60;14.80
49343;PMS5003;35210;41.606;-87.602;2023-05-07T09:03:00;19.40;18.20;14.00
49343;PMS5003;35210;41.606;-87.602;2023-05-07T09:05:31;18.60;17.00;13.00
49343;PMS5003;35210;41.606;-87.602;2023-05-07T09:07:59;21.20;17.20;13.80
49343;PMS5003;35210;41.606;-87.602;2023-05-07T09:10:31;19.80;17.20;12.40
49343;PMS5003;35210;41.606;-87.602;2023-05-07T09:13:01;18.60;17.60;12.40
49343;PMS5003;35210;41.606;-87.602;2023-05-07T09:15:30;12.60;11.80;10.20
49343;PMS5003;35210;41.606;-87.602;2023-05-07T09:17:59;15.40;14.40;10.80
49343;PMS5003;35210;41.606;-87.602;2023-05-07T09:20:30;16.80;16.80;12.40
49343;PMS5003;35210;41.606;-87.602;2023-05-07T09:22:58;12.40;11.60;9.00
49343;PMS5003;35210;41.606;-87.602;2023-05-07T09:25:32;13.40;12.80;11.00
49343;PMS5003;35210;41.606;-87.602;2023-05-07T09:28:01;9.40;9.40;7.20
49343;PMS5003;35210;41.606;-87.602;2023-05-07T09:30:31;12.20;12.20;9.00
49343;PMS5003;35210;41.606;-87.602;2023-05-07T09:33:00;13.60;12.40;9.80
49343;PMS5003;35210;41.606;-87.602;2023-05-07T09:35:31;14.00;14.00;10.00
49343;PMS5003;35210;41.606;-87.602;2023-05-07T09:38:00;8.80;8.80;6.20
49343;PMS5003;35210;41.606;-87.602;2023-05-07T09:40:28;12.60;12.60;9.00
49343;PMS5003;35210;41.606;-87.602;2023-05-07T09:43:08;11.20;11.20;8.00
49343;PMS5003;35210;41.606;-87.602;2023-05-07T09:45:37;9.00;9.00;7.40
49343;PMS5003;35210;41.606;-87.602;2023-05-07T09:48:05;14.00;12.20;9.20
49343;PMS5003;35210;41.606;-87.602;2023-05-07T09:50:35;12.20;11.00;9.00
49343;PMS5003;35210;41.606;-87.602;2023-05-07T09:53:07;11.60;11.40;9.00
49343;PMS5003;35210;41.606;-87.602;2023-05-07T09:55:40;14.00;12.20;8.40
49343;PMS5003;35210;41.606;-87.602;2023-05-07T09:58:08;10.00;10.00;7.00
49343;PMS5003;35210;41.606;-87.602;2023-05-07T10:00:39;10.80;10.20;8.00
49343;PMS5003;35210;41.606;-87.602;2023-05-07T10:03:08;12.20;10.00;8.20
49343;PMS5003;35210;41.606;-87.602;2023-05-07T10:05:38;11.80;11.00;8.00
49343;PMS5003;35210;41.606;-87.602;2023-05-07T10:08:07;12.20;9.00;7.40
49343;PMS5003;35210;41.606;-87.602;2023-05-07T10:10:37;13.00;10.40;7.00
49343;PMS5003;35210;41.606;-87.602;2023-05-07T10:13:07;10.00;9.40;8.00
49343;PMS5003;35210;41.606;-87.602;2023-05-07T10:15:36;11.60;8.80;7.80
49343;PMS5003;35210;41.606;-87.602;2023-05-07T10:18:05;12.80;11.00;7.20
49343;PMS5003;35210;41.606;-87.602;2023-05-07T10:20:35;10.00;8.00;6.20
49343;PMS5003;35210;41.606;-87.602;2023-05-07T10:23:04;11.40;10.40;7.00
49343;PMS5003;35210;41.606;-87.602;2023-05-07T10:25:34;10.00;10.00;7.40
49343;PMS5003;35210;41.606;-87.602;2023-05-07T10:28:04;9.00;8.60;6.80
49343;PMS5003;35210;41.606;-87.602;2023-05-07T10:30:38;12.40;9.60;7.60
49343;PMS5003;35210;41.606;-87.602;2023-05-07T10:33:19;11.20;9.60;6.80
49343;PMS5003;35210;41.606;-87.602;2023-05-07T10:35:55;15.00;10.00;7.00
49343;PMS5003;35210;41.606;-87.602;2023-05-07T10:38:27;9.60;5.80;4.00
49343;PMS5003;35210;41.606;-87.602;2023-05-07T10:40:55;12.60;9.60;8.00
49343;PMS5003;35210;41.606;-87.602;2023-05-07T10:43:25;8.00;7.60;6.00
49343;PMS5003;35210;41.606;-87.602;2023-05-07T10:46:10;9.00;8.00;5.20
49343;PMS5003;35210;41.606;-87.602;2023-05-07T10:51:36;10.00;7.80;4.60
49343;PMS5003;35210;41.606;-87.602;2023-05-07T10:56:54;10.60;7.00;5.60
49343;PMS5003;35210;41.606;-87.602;2023-05-07T10:59:39;10.00;7.80;5.00
49343;PMS5003;35210;41.606;-87.602;2023-05-07T11:02:08;10.60;7.40;6.00
49343;PMS5003;35210;41.606;-87.602;2023-05-07T11:04:39;10.00;7.00;5.00
49343;PMS5003;35210;41.606;-87.602;2023-05-07T11:07:26;7.60;6.20;5.00
49343;PMS5003;35210;41.606;-87.602;2023-05-07T11:10:00;10.00;8.00;6.00
49343;PMS5003;35210;41.606;-87.602;2023-05-07T11:18:18;6.40;6.40;4.80
49343;PMS5003;35210;41.606;-87.602;2023-05-07T11:20:47;8.00;7.00;5.00
49343;PMS5003;35210;41.606;-87.602;2023-05-07T11:26:44;7.40;7.00;5.00
49343;PMS5003;35210;41.606;-87.602;2023-05-07T11:29:14;8.00;8.00;6.00
49343;PMS5003;35210;41.606;-87.602;2023-05-07T11:31:45;6.20;6.20;5.00
49343;PMS5003;35210;41.606;-87.602;2023-05-07T11:34:20;8.20;8.20;5.00
49343;PMS5003;35210;41.606;-87.602;2023-05-07T11:36:49;10.40;8.20;5.80
49343;PMS5003;35210;41.606;-87.602;2023-05-07T11:39:24;8.80;7.00;5.40
49343;PMS5003;35210;41.606;-87.602;2023-05-07T11:41:55;9.40;7.00;5.80
49343;PMS5003;35210;41.606;-87.602;2023-05-07T11:44:24;7.80;7.60;5.60
49343;PMS5003;35210;41.606;-87.602;2023-05-07T11:46:54;8.00;6.00;5.60
49343;PMS5003;35210;41.606;-87.602;2023-05-07T11:49:24;8.60;7.60;6.40
49343;PMS5003;35210;41.606;-87.602;2023-05-07T11:51:55;8.60;8.00;5.60
49343;PMS5003;35210;41.606;-87.602;2023-05-07T11:54:24;8.00;6.80;5.00
49343;PMS5003;35210;41.606;-87.602;2023-05-07T11:56:52;7.40;7.40;6.00
49343;PMS5003;35210;41.606;-87.602;2023-05-07T11:59:24;9.40;6.80;5.00
49343;PMS5003;35210;41.606;-87.602;2023-05-07T12:01:56;8.00;5.00;4.00
49343;PMS5003;35210;41.606;-87.602;2023-05-07T12:04:25;7.80;7.80;6.00
49343;PMS5003;35210;41.606;-87.602;2023-05-07T12:06:53;11.00;9.00;5.60
49343;PMS5003;35210;41.606;-87.602;2023-05-07T12:09:22;12.00;10.00;6.00
49343;PMS5003;35210;41.606;-87.602;2023-05-07T12:11:51;8.80;8.80;7.40
49343;PMS5003;35210;41.606;-87.602;2023-05-07T12:14:21;10.40;8.40;6.00
49343;PMS5003;35210;41.606;-87.602;2023-05-07T12:16:49;8.40;8.40;7.00
49343;PMS5003;35210;41.606;-87.602;2023-05-07T12:19:20;8.60;8.00;5.80
49343;PMS5003;35210;41.606;-87.602;2023-05-07T12:21:48;8.20;8.20;7.00
49343;PMS5003;35210;41.606;-87.602;2023-05-07T12:24:17;10.80;9.40;7.80
49343;PMS5003;35210;41.606;-87.602;2023-05-07T12:26:45;15.00;9.80;6.60
49343;PMS5003;35210;41.606;-87.602;2023-05-07T12:29:13;9.40;8.20;6.00
49343;PMS5003;35210;41.606;-87.602;2023-05-07T12:31:41;10.00;9.20;6.20
49343;PMS5003;35210;41.606;-87.602;2023-05-07T12:34:10;9.80;9.60;6.80
49343;PMS5003;35210;41.606;-87.602;2023-05-07T12:36:42;11.20;9.60;7.00
49343;PMS5003;35210;41.606;-87.602;2023-05-07T12:39:10;6.80;6.80;5.00
49343;PMS5003;35210;41.606;-87.602;2023-05-07T12:44:22;11.00;8.00;6.40
49343;PMS5003;35210;41.606;-87.602;2023-05-07T12:46:50;7.60;7.60;5.40
49343;PMS5003;35210;41.606;-87.602;2023-05-07T12:49:18;6.60;6.60;5.40
49343;PMS5003;35210;41.606;-87.602;2023-05-07T12:51:48;7.00;7.00;6.00
49343;PMS5003;35210;41.606;-87.602;2023-05-07T12:54:27;8.00;6.00;5.00
49343;PMS5003;35210;41.606;-87.602;2023-05-07T12:57:02;10.20;8.20;5.40
49343;PMS5003;35210;41.606;-87.602;2023-05-07T12:59:32;10.40;8.00;5.40
49343;PMS5003;35210;41.606;-87.602;2023-05-07T13:02:01;11.20;10.40;7.00
49343;PMS5003;35210;41.606;-87.602;2023-05-07T13:04:29;10.00;8.60;5.80
49343;PMS5003;35210;41.606;-87.602;2023-05-07T13:06:59;8.60;7.80;6.40
49343;PMS5003;35210;41.606;-87.602;2023-05-07T13:09:28;7.00;7.00;5.20
49343;PMS5003;35210;41.606;-87.602;2023-05-07T13:11:56;10.20;8.60;6.60
49343;PMS5003;35210;41.606;-87.602;2023-05-07T13:14:26;10.00;8.80;5.40
49343;PMS5003;35210;41.606;-87.602;2023-05-07T13:16:54;8.80;8.80;6.80
49343;PMS5003;35210;41.606;-87.602;2023-05-07T13:19:22;7.00;7.00;5.00
49343;PMS5003;35210;41.606;-87.602;2023-05-07T13:21:51;6.60;6.20;4.40
49343;PMS5003;35210;41.606;-87.602;2023-05-07T13:24:20;8.40;7.80;6.20
49343;PMS5003;35210;41.606;-87.602;2023-05-07T13:26:48;8.40;7.20;5.80
49343;PMS5003;35210;41.606;-87.602;2023-05-07T13:29:16;8.20;8.20;6.00
49343;PMS5003;35210;41.606;-87.602;2023-05-07T13:31:44;8.00;6.00;5.00
49343;PMS5003;35210;41.606;-87.602;2023-05-07T13:34:13;9.20;8.80;5.60
49343;PMS5003;35210;41.606;-87.602;2023-05-07T13:36:41;8.00;8.00;6.20
49343;PMS5003;35210;41.606;-87.602;2023-05-07T13:39:09;9.80;8.20;6.00
49343;PMS5003;35210;41.606;-87.602;2023-05-07T13:41:38;6.80;6.40;5.00
49343;PMS5003;35210;41.606;-87.602;2023-05-07T13:44:07;9.80;9.80;7.40
49343;PMS5003;35210;41.606;-87.602;2023-05-07T13:46:35;8.80;7.80;5.20
49343;PMS5003;35210;41.606;-87.602;2023-05-07T13:49:03;9.00;8.20;6.60
49343;PMS5003;35210;41.606;-87.602;2023-05-07T13:51:31;5.40;5.40;4.00
49343;PMS5003;35210;41.606;-87.602;2023-05-07T13:53:59;7.60;6.00;5.00
49343;PMS5003;35210;41.606;-87.602;2023-05-07T13:56:27;9.20;8.00;6.00
49343;PMS5003;35210;41.606;-87.602;2023-05-07T13:58:59;9.00;9.00;6.60
49343;PMS5003;35210;41.606;-87.602;2023-05-07T14:01:27;8.80;8.60;6.00